createdAt,value
2018-03-28T00:00:44.197Z,945.62
2018-03-28T00:01:44.177Z,945.62
2018-03-28T00:02:44.160Z,945.64
2018-03-28T00:03:44.143Z,945.6
2018-03-28T00:04:44.129Z,945.56
2018-03-28T00:05:44.113Z,945.56
2018-03-28T00:06:44.096Z,945.58
2018-03-28T00:07:44.084Z,945.5
2018-03-28T00:08:44.064Z,945.48
2018-03-28T00:09:44.048Z,945.44
2018-03-28T00:10:44.032Z,945.46
2018-03-28T00:11:44.016Z,945.44
2018-03-28T00:12:44.002Z,945.41
2018-03-28T00:13:43.984Z,945.42
2018-03-28T00:14:43.967Z,945.43
2018-03-28T00:15:43.955Z,945.45
2018-03-28T00:16:43.935Z,945.38
2018-03-28T00:17:43.918Z,945.42
2018-03-28T00:18:43.904Z,945.39
2018-03-28T00:19:43.887Z,945.33
2018-03-28T00:20:43.871Z,945.35
2018-03-28T00:21:43.855Z,945.33
2018-03-28T00:22:43.839Z,945.29
2018-03-28T00:23:43.822Z,945.28
2018-03-28T00:24:43.806Z,945.26
2018-03-28T00:25:43.790Z,945.22
2018-03-28T00:26:43.773Z,945.17
2018-03-28T00:27:43.758Z,945.14
2018-03-28T00:28:43.739Z,945.17
2018-03-28T00:29:43.725Z,945.19
2018-03-28T00:30:43.708Z,945.16
2018-03-28T00:31:43.695Z,945.09
2018-03-28T00:32:43.676Z,945.07
2018-03-28T00:33:43.658Z,945.1
2018-03-28T00:34:43.644Z,945.11
2018-03-28T00:35:43.628Z,945.09
2018-03-28T00:36:43.609Z,945.05
2018-03-28T00:37:43.597Z,945.07
2018-03-28T00:38:43.577Z,945.04
2018-03-28T00:39:43.558Z,945.06
2018-03-28T00:40:43.546Z,945.04
2018-03-28T00:41:43.528Z,945.08
2018-03-28T00:42:43.512Z,945.04
2018-03-28T00:43:43.496Z,945.03
2018-03-28T00:44:43.476Z,944.98
2018-03-28T00:45:43.462Z,945.03
2018-03-28T00:46:43.443Z,945.01
2018-03-28T00:47:43.428Z,945.01
2018-03-28T00:48:43.413Z,944.98
2018-03-28T00:49:43.396Z,944.96
2018-03-28T00:50:43.379Z,944.93
2018-03-28T00:51:43.363Z,944.94
2018-03-28T00:52:43.346Z,944.92
2018-03-28T00:53:43.331Z,944.87
2018-03-28T00:54:43.312Z,944.93
2018-03-28T00:55:43.297Z,944.82
2018-03-28T00:56:43.280Z,944.88
2018-03-28T00:57:43.263Z,944.83
2018-03-28T00:58:43.247Z,944.83
2018-03-28T00:59:43.230Z,944.83
2018-03-28T01:00:43.215Z,944.77
2018-03-28T01:01:43.199Z,944.73
2018-03-28T01:02:43.180Z,944.72
2018-03-28T01:03:43.163Z,944.7
2018-03-28T01:04:43.148Z,944.68
2018-03-28T01:05:43.132Z,944.66
2018-03-28T01:06:43.119Z,944.67
2018-03-28T01:07:43.099Z,944.62
2018-03-28T01:08:43.081Z,944.61
2018-03-28T01:09:43.065Z,944.57
2018-03-28T01:10:43.048Z,944.59
2018-03-28T01:11:43.033Z,944.6
2018-03-28T01:12:43.016Z,944.54
2018-03-28T01:13:42.999Z,944.54
2018-03-28T01:14:42.985Z,944.53
2018-03-28T01:15:42.966Z,944.54
2018-03-28T01:16:42.950Z,944.55
2018-03-28T01:17:42.933Z,944.54
2018-03-28T01:18:42.918Z,944.54
2018-03-28T01:19:42.899Z,944.55
2018-03-28T01:20:42.884Z,944.51
2018-03-28T01:21:42.866Z,944.52
2018-03-28T01:22:42.851Z,944.5
2018-03-28T01:23:42.833Z,944.55
2018-03-28T01:24:42.817Z,944.5
2018-03-28T01:25:42.801Z,944.49
2018-03-28T01:26:42.784Z,944.48
2018-03-28T01:27:42.774Z,944.47
2018-03-28T01:28:42.752Z,944.47
2018-03-28T01:29:42.736Z,944.45
2018-03-28T01:30:42.718Z,944.41
2018-03-28T01:31:42.702Z,944.4
2018-03-28T01:32:42.686Z,944.44
2018-03-28T01:33:42.668Z,944.39
2018-03-28T01:34:42.650Z,944.38
2018-03-28T01:35:42.635Z,944.41
2018-03-28T01:36:42.619Z,944.42
2018-03-28T01:37:42.603Z,944.35
2018-03-28T01:38:42.585Z,944.38
2018-03-28T01:39:42.569Z,944.39
2018-03-28T01:40:42.554Z,944.38
2018-03-28T01:41:42.534Z,944.31
2018-03-28T01:42:42.519Z,944.37
2018-03-28T01:43:42.503Z,944.32
2018-03-28T01:44:42.486Z,944.29
2018-03-28T01:45:42.469Z,944.29
2018-03-28T01:46:42.453Z,944.26
2018-03-28T01:47:42.436Z,944.21
2018-03-28T01:48:42.420Z,944.2
2018-03-28T01:49:42.404Z,944.25
2018-03-28T01:50:42.386Z,944.2
2018-03-28T01:51:42.370Z,944.2
2018-03-28T01:52:42.360Z,944.22
2018-03-28T01:53:42.336Z,944.16
2018-03-28T01:54:42.321Z,944.22
2018-03-28T01:55:42.304Z,944.19
2018-03-28T01:56:42.287Z,944.21
2018-03-28T01:57:42.273Z,944.16
2018-03-28T01:58:42.261Z,944.19
2018-03-28T01:59:42.239Z,944.21
2018-03-28T02:00:42.223Z,944.2
2018-03-28T02:01:42.207Z,944.13
2018-03-28T02:02:42.191Z,944.15
2018-03-28T02:03:42.174Z,944.13
2018-03-28T02:04:42.158Z,944.18
2018-03-28T02:05:42.142Z,944.12
2018-03-28T02:06:42.125Z,944.11
2018-03-28T02:07:42.109Z,944.11
2018-03-28T02:08:42.092Z,944.1
2018-03-28T02:09:42.077Z,944.1
2018-03-28T02:10:42.060Z,944.1
2018-03-28T02:11:42.044Z,944.14
2018-03-28T02:12:42.028Z,944.12
2018-03-28T02:13:42.011Z,944.13
2018-03-28T02:14:41.995Z,944.06
2018-03-28T02:15:41.979Z,944.04
2018-03-28T02:16:41.963Z,944.09
2018-03-28T02:17:41.947Z,944.08
2018-03-28T02:18:41.932Z,944.07
2018-03-28T02:19:41.913Z,944.04
2018-03-28T02:20:41.899Z,944.08
2018-03-28T02:21:41.882Z,943.98
2018-03-28T02:22:41.867Z,944.04
2018-03-28T02:23:41.895Z,944.02
2018-03-28T02:24:41.835Z,943.98
2018-03-28T02:25:41.817Z,943.99
2018-03-28T02:26:41.801Z,943.93
2018-03-28T02:27:41.786Z,943.98
2018-03-28T02:28:41.769Z,943.86
2018-03-28T02:29:41.761Z,943.89
2018-03-28T02:30:41.746Z,943.82
2018-03-28T02:31:41.725Z,943.78
2018-03-28T02:32:41.705Z,943.78
2018-03-28T02:33:41.688Z,943.76
2018-03-28T02:34:41.674Z,943.73
2018-03-28T02:35:41.657Z,943.73
2018-03-28T02:36:41.641Z,943.77
2018-03-28T02:37:41.626Z,943.75
2018-03-28T02:38:41.608Z,943.68
2018-03-28T02:39:41.593Z,943.64
2018-03-28T02:40:41.578Z,943.69
2018-03-28T02:41:41.562Z,943.61
2018-03-28T02:42:41.546Z,943.57
2018-03-28T02:43:41.530Z,943.54
2018-03-28T02:44:41.514Z,943.52
2018-03-28T02:45:41.498Z,943.53
2018-03-28T02:46:41.482Z,943.41
2018-03-28T02:47:41.468Z,943.45
2018-03-28T02:48:41.450Z,943.33
2018-03-28T02:49:41.434Z,943.32
2018-03-28T02:50:41.418Z,943.25
2018-03-28T02:51:41.408Z,943.27
2018-03-28T02:52:41.386Z,943.24
2018-03-28T02:53:41.372Z,943.2
2018-03-28T02:54:41.355Z,943.24
2018-03-28T02:55:41.339Z,943.24
2018-03-28T02:56:41.326Z,943.25
2018-03-28T02:57:41.308Z,943.28
2018-03-28T02:58:41.294Z,943.31
2018-03-28T02:59:41.273Z,943.49
2018-03-28T03:00:41.262Z,943.43
2018-03-28T03:01:41.242Z,943.45
2018-03-28T03:02:41.226Z,943.47
2018-03-28T03:03:41.211Z,943.51
2018-03-28T03:04:41.194Z,943.5
2018-03-28T03:05:41.194Z,943.48
2018-03-28T03:06:41.164Z,943.57
2018-03-28T03:07:41.146Z,943.49
2018-03-28T03:08:41.130Z,943.55
2018-03-28T03:09:41.113Z,943.54
2018-03-28T03:10:41.098Z,943.5
2018-03-28T03:11:41.083Z,943.52
2018-03-28T03:12:41.065Z,943.34
2018-03-28T03:13:41.053Z,943.53
2018-03-28T03:14:41.036Z,943.4
2018-03-28T03:15:41.020Z,943.41
2018-03-28T03:16:41.003Z,943.34
2018-03-28T03:17:40.987Z,943.42
2018-03-28T03:18:40.971Z,943.33
2018-03-28T03:19:40.954Z,943.26
2018-03-28T03:20:40.939Z,943.31
2018-03-28T03:21:40.923Z,943.3
2018-03-28T03:22:40.908Z,943.37
2018-03-28T03:23:40.890Z,943.3
2018-03-28T03:24:40.876Z,943.24
2018-03-28T03:25:40.861Z,943.3
2018-03-28T03:26:40.844Z,943.24
2018-03-28T03:27:40.827Z,943.24
2018-03-28T03:28:40.816Z,943.24
2018-03-28T03:29:40.796Z,943.22
2018-03-28T03:30:40.791Z,943.2
2018-03-28T03:31:40.768Z,943.24
2018-03-28T03:32:40.749Z,943.24
2018-03-28T03:33:40.734Z,943.18
2018-03-28T03:34:40.717Z,943.16
2018-03-28T03:35:40.701Z,943.18
2018-03-28T03:36:40.691Z,943.17
2018-03-28T03:37:40.670Z,943.17
2018-03-28T03:38:40.654Z,943.16
2018-03-28T03:39:40.638Z,943.23
2018-03-28T03:40:40.622Z,943.22
2018-03-28T03:41:40.604Z,943.31
2018-03-28T03:42:40.589Z,943.33
2018-03-28T03:43:40.574Z,943.25
2018-03-28T03:44:40.558Z,943.32
2018-03-28T03:45:40.542Z,943.28
2018-03-28T03:46:40.527Z,943.2
2018-03-28T03:47:40.510Z,943.23
2018-03-28T03:48:40.495Z,943.15
2018-03-28T03:49:40.478Z,943.17
2018-03-28T03:50:40.463Z,943.22
2018-03-28T03:51:40.447Z,943.21
2018-03-28T03:52:40.430Z,943.21
2018-03-28T03:53:40.415Z,943.22
2018-03-28T03:54:40.398Z,943.22
2018-03-28T03:55:40.385Z,943.25
2018-03-28T03:56:40.366Z,943.21
2018-03-28T03:57:40.351Z,943.2
2018-03-28T03:58:40.334Z,943.13
2018-03-28T03:59:40.320Z,943.15
2018-03-28T04:00:40.305Z,943.19
2018-03-28T04:01:40.288Z,943.14
2018-03-28T04:02:40.272Z,943.17
2018-03-28T04:03:40.255Z,943.21
2018-03-28T04:04:40.240Z,943.22
2018-03-28T04:05:40.224Z,943.16
2018-03-28T04:06:40.208Z,943.16
2018-03-28T04:07:40.190Z,943.12
2018-03-28T04:08:40.175Z,943.25
2018-03-28T04:09:40.160Z,943.2
2018-03-28T04:10:40.144Z,943.24
2018-03-28T04:11:40.127Z,943.17
2018-03-28T04:12:40.111Z,943.22
2018-03-28T04:13:40.096Z,943.22
2018-03-28T04:14:40.082Z,943.26
2018-03-28T04:15:40.070Z,943.31
2018-03-28T04:16:40.049Z,943.21
2018-03-28T04:17:40.033Z,943.24
2018-03-28T04:18:40.017Z,943.21
2018-03-28T04:19:40.001Z,943.14
2018-03-28T04:20:39.989Z,943.14
2018-03-28T04:21:39.969Z,943.16
2018-03-28T04:22:39.953Z,943.21
2018-03-28T04:23:39.936Z,943.19
2018-03-28T04:24:39.921Z,943.3
2018-03-28T04:25:39.903Z,943.27
2018-03-28T04:26:39.888Z,943.3
2018-03-28T04:27:39.873Z,943.34
2018-03-28T04:28:39.857Z,943.29
2018-03-28T04:29:39.840Z,943.33
2018-03-28T04:30:39.823Z,943.22
2018-03-28T04:31:39.810Z,943.25
2018-03-28T04:32:39.792Z,943.25
2018-03-28T04:33:39.777Z,943.29
2018-03-28T04:34:39.760Z,943.3
2018-03-28T04:35:39.745Z,943.29
2018-03-28T04:36:39.767Z,943.24
2018-03-28T04:37:39.713Z,943.29
2018-03-28T04:38:39.697Z,943.18
2018-03-28T04:39:39.680Z,943.14
2018-03-28T04:40:39.664Z,943.22
2018-03-28T04:41:39.647Z,943.21
2018-03-28T04:42:39.633Z,943.24
2018-03-28T04:43:39.618Z,943.26
2018-03-28T04:44:39.600Z,943.28
2018-03-28T04:45:39.585Z,943.23
2018-03-28T04:46:39.567Z,943.24
2018-03-28T04:47:39.551Z,943.24
2018-03-28T04:48:39.537Z,943.17
2018-03-28T04:49:39.520Z,943.32
2018-03-28T04:50:39.504Z,943.24
2018-03-28T04:51:39.486Z,943.21
2018-03-28T04:52:39.473Z,943.19
2018-03-28T04:53:39.456Z,943.19
2018-03-28T04:54:39.440Z,943.18
2018-03-28T04:55:39.427Z,943.12
2018-03-28T04:56:39.407Z,943.18
2018-03-28T04:57:39.391Z,943.21
2018-03-28T04:58:39.373Z,943.23
2018-03-28T04:59:39.360Z,943.18
2018-03-28T05:00:39.343Z,943.24
2018-03-28T05:01:39.328Z,943.28
2018-03-28T05:02:39.313Z,943.21
2018-03-28T05:03:39.294Z,943.22
2018-03-28T05:04:39.279Z,943.23
2018-03-28T05:05:39.263Z,943.25
2018-03-28T05:06:39.247Z,943.24
2018-03-28T05:07:39.230Z,943.3
2018-03-28T05:08:39.216Z,943.22
2018-03-28T05:09:39.199Z,943.23
2018-03-28T05:10:39.184Z,943.25
2018-03-28T05:11:39.167Z,943.28
2018-03-28T05:12:39.150Z,943.19
2018-03-28T05:13:39.135Z,943.25
2018-03-28T05:14:39.123Z,943.23
2018-03-28T05:15:39.152Z,943.22
2018-03-28T05:16:39.085Z,943.15
2018-03-28T05:17:39.071Z,943.18
2018-03-28T05:18:39.054Z,943.16
2018-03-28T05:19:39.037Z,943.19
2018-03-28T05:20:39.024Z,943.2
2018-03-28T05:21:39.028Z,943.2
2018-03-28T05:22:39.021Z,943.24
2018-03-28T05:23:38.972Z,943.2
2018-03-28T05:24:38.955Z,943.17
2018-03-28T05:25:38.940Z,943.23
2018-03-28T05:26:38.926Z,943.22
2018-03-28T05:27:38.906Z,943.2
2018-03-28T05:28:38.890Z,943.19
2018-03-28T05:29:38.875Z,943.2
2018-03-28T05:30:38.859Z,943.22
2018-03-28T05:31:38.842Z,943.28
2018-03-28T05:32:38.826Z,943.25
2018-03-28T05:33:38.808Z,943.23
2018-03-28T05:34:38.794Z,943.23
2018-03-28T05:35:38.777Z,943.26
2018-03-28T05:36:38.762Z,943.28
2018-03-28T05:37:38.809Z,943.22
2018-03-28T05:38:38.728Z,943.26
2018-03-28T05:39:38.711Z,943.24
2018-03-28T05:40:38.697Z,943.18
2018-03-28T05:41:38.680Z,943.17
2018-03-28T05:42:38.662Z,943.14
2018-03-28T05:43:38.650Z,943.16
2018-03-28T05:44:38.631Z,943.15
2018-03-28T05:45:38.616Z,943.2
2018-03-28T05:46:38.600Z,943.17
2018-03-28T05:47:38.583Z,943.18
2018-03-28T05:48:38.566Z,943.19
2018-03-28T05:49:38.552Z,943.2
2018-03-28T05:50:38.535Z,943.18
2018-03-28T05:51:38.519Z,943.12
2018-03-28T05:52:38.503Z,943.04
2018-03-28T05:53:38.486Z,943.06
2018-03-28T05:54:38.470Z,943.13
2018-03-28T05:55:38.454Z,943.07
2018-03-28T05:56:38.439Z,943.11
2018-03-28T05:57:38.421Z,943.07
2018-03-28T05:58:38.407Z,943.08
2018-03-28T05:59:38.391Z,943.02
2018-03-28T06:00:38.373Z,942.99
2018-03-28T06:01:38.362Z,943.08
2018-03-28T06:02:38.341Z,943.06
2018-03-28T06:03:38.326Z,943.07
2018-03-28T06:04:38.308Z,943.13
2018-03-28T06:05:38.293Z,943.1
2018-03-28T06:06:38.277Z,943.11
2018-03-28T06:07:38.304Z,943.09
2018-03-28T06:08:38.246Z,943.01
2018-03-28T06:09:38.230Z,943.02
2018-03-28T06:10:38.214Z,943.02
2018-03-28T06:11:38.196Z,943.03
2018-03-28T06:12:38.181Z,943.01
2018-03-28T06:13:38.166Z,943.02
2018-03-28T06:14:38.149Z,943.03
2018-03-28T06:15:38.133Z,943.04
2018-03-28T06:16:38.120Z,943.02
2018-03-28T06:17:38.102Z,943
2018-03-28T06:18:38.085Z,942.99
2018-03-28T06:19:38.073Z,942.96
2018-03-28T06:20:38.055Z,942.99
2018-03-28T06:21:38.039Z,942.98
2018-03-28T06:22:38.022Z,942.94
2018-03-28T06:23:38.006Z,942.89
2018-03-28T06:24:37.989Z,942.88
2018-03-28T06:25:37.973Z,942.91
2018-03-28T06:26:37.957Z,942.92
2018-03-28T06:27:37.942Z,942.84
2018-03-28T06:28:37.927Z,942.89
2018-03-28T06:29:37.912Z,942.87
2018-03-28T06:30:37.905Z,942.87
2018-03-28T06:31:37.879Z,942.87
2018-03-28T06:32:37.864Z,942.9
2018-03-28T06:33:37.847Z,942.82
2018-03-28T06:34:37.833Z,942.84
2018-03-28T06:35:37.818Z,942.86
2018-03-28T06:36:37.803Z,942.81
2018-03-28T06:37:37.784Z,942.73
2018-03-28T06:38:37.770Z,942.79
2018-03-28T06:39:37.755Z,942.78
2018-03-28T06:40:37.740Z,942.78
2018-03-28T06:41:37.726Z,942.73
2018-03-28T06:42:37.708Z,942.75
2018-03-28T06:43:37.697Z,942.72
2018-03-28T06:44:37.677Z,942.68
2018-03-28T06:45:37.661Z,942.69
2018-03-28T06:46:37.648Z,942.65
2018-03-28T06:47:37.630Z,942.6
2018-03-28T06:48:37.616Z,942.66
2018-03-28T06:49:37.599Z,942.67
2018-03-28T06:50:37.584Z,942.68
2018-03-28T06:51:37.567Z,942.66
2018-03-28T06:52:37.552Z,942.61
2018-03-28T06:53:37.553Z,942.6
2018-03-28T06:54:37.522Z,942.6
2018-03-28T06:55:37.504Z,942.59
2018-03-28T06:56:37.490Z,942.66
2018-03-28T06:57:37.475Z,942.64
2018-03-28T06:58:37.461Z,942.56
2018-03-28T06:59:37.489Z,942.63
2018-03-28T07:00:37.428Z,942.58
2018-03-28T07:01:37.413Z,942.58
2018-03-28T07:02:37.396Z,942.6
2018-03-28T07:03:37.382Z,942.57
2018-03-28T07:04:37.367Z,942.59
2018-03-28T07:05:37.351Z,942.61
2018-03-28T07:06:37.336Z,942.56
2018-03-28T07:07:37.323Z,942.61
2018-03-28T07:08:37.306Z,942.62
2018-03-28T07:09:37.292Z,942.65
2018-03-28T07:10:37.274Z,942.68
2018-03-28T07:11:37.259Z,942.67
2018-03-28T07:12:37.244Z,942.67
2018-03-28T07:13:37.228Z,942.69
2018-03-28T07:14:37.214Z,942.66
2018-03-28T07:15:37.198Z,942.67
2018-03-28T07:16:37.186Z,942.73
2018-03-28T07:17:37.166Z,942.68
2018-03-28T07:18:37.151Z,942.62
2018-03-28T07:19:37.141Z,942.65
2018-03-28T07:20:37.177Z,942.63
2018-03-28T07:21:37.112Z,942.74
2018-03-28T07:22:37.090Z,942.66
2018-03-28T07:23:37.075Z,942.63
2018-03-28T07:24:37.060Z,942.62
2018-03-28T07:25:37.045Z,942.62
2018-03-28T07:26:37.029Z,942.62
2018-03-28T07:27:37.015Z,942.54
2018-03-28T07:28:37.005Z,942.55
2018-03-28T07:29:36.985Z,942.55
2018-03-28T07:30:36.975Z,942.56
2018-03-28T07:31:36.953Z,942.59
2018-03-28T07:32:36.936Z,942.61
2018-03-28T07:33:36.923Z,942.56
2018-03-28T07:34:36.911Z,942.59
2018-03-28T07:35:36.893Z,942.52
2018-03-28T07:36:36.878Z,942.61
2018-03-28T07:37:36.866Z,942.64
2018-03-28T07:38:36.847Z,942.68
2018-03-28T07:39:36.832Z,942.62
2018-03-28T07:40:36.817Z,942.62
2018-03-28T07:41:36.803Z,942.54
2018-03-28T07:42:36.789Z,942.54
2018-03-28T07:43:36.771Z,942.48
2018-03-28T07:44:36.757Z,942.49
2018-03-28T07:45:36.742Z,942.48
2018-03-28T07:46:36.737Z,942.47
2018-03-28T07:47:36.712Z,942.51
2018-03-28T07:48:36.700Z,942.56
2018-03-28T07:49:36.684Z,942.57
2018-03-28T07:50:36.667Z,942.55
2018-03-28T07:51:36.718Z,942.56
2018-03-28T07:52:36.638Z,942.55
2018-03-28T07:53:36.629Z,942.58
2018-03-28T07:54:36.608Z,942.63
2018-03-28T07:55:36.594Z,942.63
2018-03-28T07:56:36.578Z,942.56
2018-03-28T07:57:36.564Z,942.52
2018-03-28T07:58:36.550Z,942.56
2018-03-28T07:59:36.536Z,942.58
2018-03-28T08:00:36.522Z,942.53
2018-03-28T08:01:36.505Z,942.5
2018-03-28T08:02:36.490Z,942.46
2018-03-28T08:03:36.476Z,942.41
2018-03-28T08:04:36.462Z,942.52
2018-03-28T08:05:36.447Z,942.52
2018-03-28T08:06:36.445Z,942.46
2018-03-28T08:07:36.421Z,942.47
2018-03-28T08:08:36.412Z,942.39
2018-03-28T08:09:36.457Z,942.41
2018-03-28T08:10:36.377Z,942.42
2018-03-28T08:11:36.366Z,942.47
2018-03-28T08:12:36.349Z,942.46
2018-03-28T08:13:36.334Z,942.41
2018-03-28T08:14:36.322Z,942.39
2018-03-28T08:15:36.309Z,942.37
2018-03-28T08:16:36.294Z,942.38
2018-03-28T08:17:36.281Z,942.41
2018-03-28T08:18:36.269Z,942.34
2018-03-28T08:19:36.255Z,942.37
2018-03-28T08:20:36.241Z,942.36
2018-03-28T08:21:36.228Z,942.37
2018-03-28T08:22:36.216Z,942.37
2018-03-28T08:23:36.201Z,942.33
2018-03-28T08:24:36.193Z,942.35
2018-03-28T08:25:36.177Z,942.32
2018-03-28T08:26:36.162Z,942.29
2018-03-28T08:27:36.150Z,942.26
2018-03-28T08:28:36.137Z,942.31
2018-03-28T08:29:36.128Z,942.36
2018-03-28T08:30:36.110Z,942.31
2018-03-28T08:31:36.098Z,942.31
2018-03-28T08:32:36.085Z,942.32
2018-03-28T08:33:36.071Z,942.32
2018-03-28T08:34:36.063Z,942.32
2018-03-28T08:35:36.046Z,942.28
2018-03-28T08:36:36.036Z,942.24
2018-03-28T08:37:36.019Z,942.26
2018-03-28T08:38:36.007Z,942.34
2018-03-28T08:39:35.993Z,942.29
2018-03-28T08:40:35.982Z,942.31
2018-03-28T08:41:35.966Z,942.36
2018-03-28T08:42:35.954Z,942.36
2018-03-28T08:43:35.942Z,942.37
2018-03-28T08:44:35.930Z,942.34
2018-03-28T08:45:35.966Z,942.33
2018-03-28T08:46:35.902Z,942.31
2018-03-28T08:47:35.901Z,942.33
2018-03-28T08:48:35.889Z,942.37
2018-03-28T08:49:35.862Z,942.34
2018-03-28T08:50:35.850Z,942.29
2018-03-28T08:51:35.837Z,942.3
2018-03-28T08:52:35.823Z,942.3
2018-03-28T08:53:35.809Z,942.32
2018-03-28T08:54:35.798Z,942.32
2018-03-28T08:55:35.790Z,942.28
2018-03-28T08:56:35.770Z,942.29
2018-03-28T08:57:35.759Z,942.36
2018-03-28T08:58:35.744Z,942.31
2018-03-28T08:59:35.729Z,942.34
2018-03-28T09:00:35.718Z,942.35
2018-03-28T09:01:35.704Z,942.37
2018-03-28T09:02:35.692Z,942.35
2018-03-28T09:03:35.676Z,942.34
2018-03-28T09:04:35.665Z,942.37
2018-03-28T09:05:35.651Z,942.34
2018-03-28T09:06:35.637Z,942.43
2018-03-28T09:07:35.625Z,942.41
2018-03-28T09:08:35.612Z,942.43
2018-03-28T09:09:35.600Z,942.45
2018-03-28T09:10:35.586Z,942.44
2018-03-28T09:11:35.642Z,942.45
2018-03-28T09:12:35.561Z,942.41
2018-03-28T09:13:35.547Z,942.42
2018-03-28T09:14:35.533Z,942.4
2018-03-28T09:15:35.521Z,942.41
2018-03-28T09:16:35.508Z,942.42
2018-03-28T09:17:35.494Z,942.4
2018-03-28T09:18:35.480Z,942.43
2018-03-28T09:19:35.469Z,942.4
2018-03-28T09:20:35.456Z,942.34
2018-03-28T09:21:35.442Z,942.35
2018-03-28T09:22:35.428Z,942.36
2018-03-28T09:23:35.418Z,942.31
2018-03-28T09:24:35.403Z,942.34
2018-03-28T09:25:35.399Z,942.33
2018-03-28T09:26:35.377Z,942.33
2018-03-28T09:27:35.364Z,942.33
2018-03-28T09:28:35.349Z,942.32
2018-03-28T09:29:35.339Z,942.32
2018-03-28T09:30:35.323Z,942.29
2018-03-28T09:31:35.310Z,942.33
2018-03-28T09:32:35.296Z,942.29
2018-03-28T09:33:35.283Z,942.25
2018-03-28T09:34:35.277Z,942.25
2018-03-28T09:35:35.257Z,942.24
2018-03-28T09:36:35.245Z,942.28
2018-03-28T09:37:35.230Z,942.27
2018-03-28T09:38:35.216Z,942.29
2018-03-28T09:39:35.204Z,942.29
2018-03-28T09:40:35.191Z,942.3
2018-03-28T09:41:35.177Z,942.35
2018-03-28T09:42:35.164Z,942.28
2018-03-28T09:43:35.154Z,942.33
2018-03-28T09:44:35.137Z,942.31
2018-03-28T09:45:35.124Z,942.32
2018-03-28T09:46:35.112Z,942.36
2018-03-28T09:47:35.097Z,942.34
2018-03-28T09:48:35.084Z,942.36
2018-03-28T09:49:35.071Z,942.42
2018-03-28T09:50:35.057Z,942.44
2018-03-28T09:51:35.044Z,942.42
2018-03-28T09:52:35.031Z,942.42
2018-03-28T09:53:35.017Z,942.42
2018-03-28T09:54:35.004Z,942.41
2018-03-28T09:55:34.990Z,942.43
2018-03-28T09:56:34.977Z,942.43
2018-03-28T09:57:34.964Z,942.46
2018-03-28T09:58:34.949Z,942.48
2018-03-28T09:59:34.938Z,942.45
2018-03-28T10:00:34.924Z,942.47
2018-03-28T10:01:34.909Z,942.45
2018-03-28T10:02:34.895Z,942.45
2018-03-28T10:03:34.883Z,942.42
2018-03-28T10:04:34.871Z,942.43
2018-03-28T10:05:34.856Z,942.43
2018-03-28T10:06:34.842Z,942.47
2018-03-28T10:07:34.830Z,942.52
2018-03-28T10:08:34.818Z,942.47
2018-03-28T10:09:34.803Z,942.46
2018-03-28T10:10:34.788Z,942.47
2018-03-28T10:11:34.777Z,942.42
2018-03-28T10:12:34.763Z,942.42
2018-03-28T10:13:34.748Z,942.41
2018-03-28T10:14:34.735Z,942.35
2018-03-28T10:15:34.723Z,942.38
2018-03-28T10:16:34.708Z,942.34
2018-03-28T10:17:34.695Z,942.35
2018-03-28T10:18:34.683Z,942.3
2018-03-28T10:19:34.670Z,942.29
2018-03-28T10:20:34.656Z,942.26
2018-03-28T10:21:34.646Z,942.25
2018-03-28T10:22:34.630Z,942.29
2018-03-28T10:23:34.617Z,942.27
2018-03-28T10:24:34.602Z,942.24
2018-03-28T10:25:34.591Z,942.26
2018-03-28T10:26:34.578Z,942.24
2018-03-28T10:27:34.565Z,942.25
2018-03-28T10:28:34.553Z,942.2
2018-03-28T10:29:34.540Z,942.22
2018-03-28T10:30:34.526Z,942.17
2018-03-28T10:31:34.514Z,942.12
2018-03-28T10:32:34.499Z,942.12
2018-03-28T10:33:34.487Z,942.11
2018-03-28T10:34:34.478Z,942.1
2018-03-28T10:35:34.460Z,942.08
2018-03-28T10:36:34.453Z,942.07
2018-03-28T10:37:34.434Z,942.13
2018-03-28T10:38:34.422Z,942.1
2018-03-28T10:39:34.409Z,942.09
2018-03-28T10:40:34.396Z,942.04
2018-03-28T10:41:34.383Z,942.08
2018-03-28T10:42:34.370Z,942.12
2018-03-28T10:43:34.357Z,942.1
2018-03-28T10:44:34.352Z,942.13
2018-03-28T10:45:34.331Z,942.09
2018-03-28T10:46:34.321Z,942.04
2018-03-28T10:47:34.306Z,942.06
2018-03-28T10:48:34.354Z,942.07
2018-03-28T10:49:34.279Z,942.12
2018-03-28T10:50:34.267Z,942.03
2018-03-28T10:51:34.254Z,942
2018-03-28T10:52:34.241Z,941.96
2018-03-28T10:53:34.228Z,941.98
2018-03-28T10:54:34.218Z,942.01
2018-03-28T10:55:34.203Z,942.04
2018-03-28T10:56:34.190Z,942.01
2018-03-28T10:57:34.178Z,941.98
2018-03-28T10:58:34.164Z,941.98
2018-03-28T10:59:34.153Z,941.99
2018-03-28T11:00:34.138Z,942
2018-03-28T11:01:34.131Z,941.93
2018-03-28T11:02:34.115Z,941.99
2018-03-28T11:03:34.103Z,941.96
2018-03-28T11:04:34.091Z,941.95
2018-03-28T11:05:34.078Z,941.92
2018-03-28T11:06:34.065Z,941.9
2018-03-28T11:07:34.051Z,941.92
2018-03-28T11:08:34.039Z,941.91
2018-03-28T11:09:34.026Z,941.92
2018-03-28T11:10:34.015Z,941.86
2018-03-28T11:11:34.007Z,941.86
2018-03-28T11:12:33.989Z,941.9
2018-03-28T11:13:33.977Z,941.84
2018-03-28T11:14:33.965Z,941.84
2018-03-28T11:15:33.952Z,941.82
2018-03-28T11:16:33.940Z,941.8
2018-03-28T11:17:33.926Z,941.8
2018-03-28T11:18:33.913Z,941.79
2018-03-28T11:19:33.902Z,941.77
2018-03-28T11:20:33.913Z,941.84
2018-03-28T11:21:33.881Z,941.77
2018-03-28T11:22:33.865Z,941.77
2018-03-28T11:23:33.853Z,941.77
2018-03-28T11:24:33.840Z,941.79
2018-03-28T11:25:33.828Z,941.76
2018-03-28T11:26:33.818Z,941.78
2018-03-28T11:27:33.803Z,941.8
2018-03-28T11:28:33.793Z,941.74
2018-03-28T11:29:33.778Z,941.77
2018-03-28T11:30:33.766Z,941.75
2018-03-28T11:31:33.754Z,941.77
2018-03-28T11:32:33.745Z,941.71
2018-03-28T11:33:33.732Z,941.69
2018-03-28T11:34:33.719Z,941.65
2018-03-28T11:35:33.708Z,941.64
2018-03-28T11:36:33.694Z,941.74
2018-03-28T11:37:33.682Z,941.69
2018-03-28T11:38:33.672Z,941.66
2018-03-28T11:39:33.659Z,941.66
2018-03-28T11:40:33.646Z,941.62
2018-03-28T11:41:33.634Z,941.7
2018-03-28T11:42:33.624Z,941.66
2018-03-28T11:43:33.616Z,941.67
2018-03-28T11:44:33.604Z,941.7
2018-03-28T11:45:33.586Z,941.63
2018-03-28T11:46:33.577Z,941.6
2018-03-28T11:47:33.561Z,941.58
2018-03-28T11:48:33.549Z,941.61
2018-03-28T11:49:33.542Z,941.56
2018-03-28T11:50:33.528Z,941.57
2018-03-28T11:51:33.513Z,941.58
2018-03-28T11:52:33.504Z,941.58
2018-03-28T11:53:33.490Z,941.53
2018-03-28T11:54:33.480Z,941.51
2018-03-28T11:55:33.467Z,941.51
2018-03-28T11:56:33.457Z,941.48
2018-03-28T11:57:33.445Z,941.52
2018-03-28T11:58:33.431Z,941.51
2018-03-28T11:59:33.418Z,941.53
2018-03-28T12:00:33.408Z,941.49
2018-03-28T12:01:33.395Z,941.45
2018-03-28T12:02:33.383Z,941.47
2018-03-28T12:03:33.372Z,941.46
2018-03-28T12:04:33.359Z,941.44
2018-03-28T12:05:33.348Z,941.43
2018-03-28T12:06:33.335Z,941.45
2018-03-28T12:07:33.324Z,941.48
2018-03-28T12:08:33.313Z,941.47
2018-03-28T12:09:33.299Z,941.46
2018-03-28T12:10:33.289Z,941.42
2018-03-28T12:11:33.279Z,941.45
2018-03-28T12:12:33.264Z,941.41
2018-03-28T12:13:33.253Z,941.44
2018-03-28T12:14:33.240Z,941.38
2018-03-28T12:15:33.230Z,941.44
2018-03-28T12:16:33.218Z,941.4
2018-03-28T12:17:33.205Z,941.41
2018-03-28T12:18:33.192Z,941.41
2018-03-28T12:19:33.186Z,941.37
2018-03-28T12:20:33.169Z,941.38
2018-03-28T12:21:33.157Z,941.39
2018-03-28T12:22:33.146Z,941.34
2018-03-28T12:23:33.134Z,941.35
2018-03-28T12:24:33.122Z,941.31
2018-03-28T12:25:33.110Z,941.31
2018-03-28T12:26:33.098Z,941.34
2018-03-28T12:27:33.088Z,941.32
2018-03-28T12:28:33.076Z,941.31
2018-03-28T12:29:33.062Z,941.33
2018-03-28T12:30:33.051Z,941.36